sensor_id;sensor_type;location;lat;lon;timestamp;temperature;humidity
71184;DHT22;58887;51.980;4.464;2023-05-07T00:03:00;16.07;80.77
71184;DHT22;58887;51.980;4.464;2023-05-07T00:12:02;16.07;80.98
71184;DHT22;58887;51.980;4.464;2023-05-07T00:14:35;16.07;80.69
71184;DHT22;58887;51.980;4.464;2023-05-07T00:20:49;16.07;80.49
71184;DHT22;58887;51.980;4.464;2023-05-07T00:23:33;15.99;80.67
71184;DHT22;58887;51.980;4.464;2023-05-07T00:26:03;15.89;80.99
71184;DHT22;58887;51.980;4.464;2023-05-07T00:31:50;15.93;80.85
71184;DHT22;58887;51.980;4.464;2023-05-07T00:37:38;15.93;80.47
71184;DHT22;58887;51.980;4.464;2023-05-07T00:43:25;15.89;80.43
71184;DHT22;58887;51.980;4.464;2023-05-07T00:49:12;15.83;80.38
71184;DHT22;58887;51.980;4.464;2023-05-07T00:51:59;15.78;80.62
71184;DHT22;58887;51.980;4.464;2023-05-07T00:58:21;15.75;80.76
71184;DHT22;58887;51.980;4.464;2023-05-07T01:01:02;15.72;80.69
71184;DHT22;58887;51.980;4.464;2023-05-07T01:03:58;15.73;80.79
71184;DHT22;58887;51.980;4.464;2023-05-07T01:06:59;15.75;80.76
71184;DHT22;58887;51.980;4.464;2023-05-07T01:12:51;15.70;80.79
71184;DHT22;58887;51.980;4.464;2023-05-07T01:15:49;15.69;80.75
71184;DHT22;58887;51.980;4.464;2023-05-07T01:21:38;15.73;80.87
71184;DHT22;58887;51.980;4.464;2023-05-07T01:41:58;15.82;80.20
71184;DHT22;58887;51.980;4.464;2023-05-07T01:44:40;15.85;80.17
71184;DHT22;58887;51.980;4.464;2023-05-07T01:47:16;15.82;80.06
71184;DHT22;58887;51.980;4.464;2023-05-07T01:49:50;15.87;80.10
71184;DHT22;58887;51.980;4.464;2023-05-07T01:52:31;15.86;79.99
71184;DHT22;58887;51.980;4.464;2023-05-07T01:54:56;15.90;79.85
71184;DHT22;58887;51.980;4.464;2023-05-07T01:57:28;15.85;80.12
71184;DHT22;58887;51.980;4.464;2023-05-07T02:06:45;15.81;80.24
71184;DHT22;58887;51.980;4.464;2023-05-07T02:12:33;15.83;79.86
71184;DHT22;58887;51.980;4.464;2023-05-07T02:18:48;15.78;80.26
71184;DHT22;58887;51.980;4.464;2023-05-07T02:24:43;15.82;80.26
71184;DHT22;58887;51.980;4.464;2023-05-07T02:30:32;15.81;80.41
71184;DHT22;58887;51.980;4.464;2023-05-07T02:32:59;15.78;80.41
71184;DHT22;58887;51.980;4.464;2023-05-07T02:35:29;15.81;80.46
71184;DHT22;58887;51.980;4.464;2023-05-07T02:41:44;15.90;80.45
71184;DHT22;58887;51.980;4.464;2023-05-07T02:47:41;15.99;80.21
71184;DHT22;58887;51.980;4.464;2023-05-07T02:56:12;15.94;80.32
71184;DHT22;58887;51.980;4.464;2023-05-07T02:58:39;15.97;80.26
71184;DHT22;58887;51.980;4.464;2023-05-07T03:01:09;15.96;80.55
71184;DHT22;58887;51.980;4.464;2023-05-07T03:04:00;15.96;80.52
71184;DHT22;58887;51.980;4.464;2023-05-07T03:06:26;15.99;80.40
71184;DHT22;58887;51.980;4.464;2023-05-07T03:12:03;16.07;80.28
71184;DHT22;58887;51.980;4.464;2023-05-07T03:14:30;16.07;80.31
71184;DHT22;58887;51.980;4.464;2023-05-07T03:16:56;16.09;80.28
71184;DHT22;58887;51.980;4.464;2023-05-07T03:19:26;16.04;80.24
71184;DHT22;58887;51.980;4.464;2023-05-07T03:21:54;16.06;80.29
71184;DHT22;58887;51.980;4.464;2023-05-07T03:24:19;16.04;80.31
71184;DHT22;58887;51.980;4.464;2023-05-07T03:26:47;16.06;80.21
71184;DHT22;58887;51.980;4.464;2023-05-07T03:29:12;16.07;80.25
71184;DHT22;58887;51.980;4.464;2023-05-07T03:31:43;16.09;80.23
71184;DHT22;58887;51.980;4.464;2023-05-07T03:34:10;16.13;80.29
71184;DHT22;58887;51.980;4.464;2023-05-07T03:36:36;16.14;80.21
71184;DHT22;58887;51.980;4.464;2023-05-07T03:39:39;16.16;79.93
71184;DHT22;58887;51.980;4.464;2023-05-07T03:42:05;16.09;80.12
71184;DHT22;58887;51.980;4.464;2023-05-07T03:44:32;16.06;80.34
71184;DHT22;58887;51.980;4.464;2023-05-07T03:47:10;16.06;80.43
71184;DHT22;58887;51.980;4.464;2023-05-07T03:49:51;16.03;80.59
71184;DHT22;58887;51.980;4.464;2023-05-07T03:52:35;16.09;80.57
71184;DHT22;58887;51.980;4.464;2023-05-07T03:55:17;16.10;80.55
71184;DHT22;58887;51.980;4.464;2023-05-07T03:57:48;16.06;80.55
71184;DHT22;58887;51.980;4.464;2023-05-07T04:00:16;16.02;80.76
71184;DHT22;58887;51.980;4.464;2023-05-07T04:02:51;16.02;80.82
71184;DHT22;58887;51.980;4.464;2023-05-07T04:05:18;16.04;80.73
71184;DHT22;58887;51.980;4.464;2023-05-07T04:08:02;15.97;80.91
71184;DHT22;58887;51.980;4.464;2023-05-07T04:10:31;15.93;80.86
71184;DHT22;58887;51.980;4.464;2023-05-07T04:12:59;15.92;81.03
71184;DHT22;58887;51.980;4.464;2023-05-07T04:15:30;15.97;80.88
71184;DHT22;58887;51.980;4.464;2023-05-07T04:18:12;15.96;80.96
71184;DHT22;58887;51.980;4.464;2023-05-07T04:20:59;16.06;80.61
71184;DHT22;58887;51.980;4.464;2023-05-07T04:23:24;16.04;80.65
71184;DHT22;58887;51.980;4.464;2023-05-07T04:26:00;16.06;80.54
71184;DHT22;58887;51.980;4.464;2023-05-07T04:28:38;16.06;80.57
71184;DHT22;58887;51.980;4.464;2023-05-07T04:31:06;16.09;80.36
71184;DHT22;58887;51.980;4.464;2023-05-07T04:33:39;16.09;80.42
71184;DHT22;58887;51.980;4.464;2023-05-07T04:36:30;16.10;80.23
71184;DHT22;58887;51.980;4.464;2023-05-07T04:39:13;16.10;80.32
71184;DHT22;58887;51.980;4.464;2023-05-07T04:41:52;16.09;80.49
71184;DHT22;58887;51.980;4.464;2023-05-07T04:44:20;16.16;80.42
71184;DHT22;58887;51.980;4.464;2023-05-07T04:46:46;16.09;80.63
71184;DHT22;58887;51.980;4.464;2023-05-07T04:49:12;16.07;80.60
71184;DHT22;58887;51.980;4.464;2023-05-07T04:51:37;16.09;80.61
71184;DHT22;58887;51.980;4.464;2023-05-07T04:54:03;16.16;80.49
71184;DHT22;58887;51.980;4.464;2023-05-07T04:56:29;16.20;80.53
71184;DHT22;58887;51.980;4.464;2023-05-07T04:59:01;16.23;80.22
71184;DHT22;58887;51.980;4.464;2023-05-07T05:01:28;16.21;80.13
71184;DHT22;58887;51.980;4.464;2023-05-07T05:03:54;16.23;80.56
71184;DHT22;58887;51.980;4.464;2023-05-07T05:06:20;16.24;80.35
71184;DHT22;58887;51.980;4.464;2023-05-07T05:09:01;16.25;80.39
71184;DHT22;58887;51.980;4.464;2023-05-07T05:11:33;16.28;80.47
71184;DHT22;58887;51.980;4.464;2023-05-07T05:13:59;16.34;80.21
71184;DHT22;58887;51.980;4.464;2023-05-07T05:16:33;16.34;80.16
71184;DHT22;58887;51.980;4.464;2023-05-07T05:18:59;16.37;80.03
71184;DHT22;58887;51.980;4.464;2023-05-07T05:21:26;16.40;80.24
71184;DHT22;58887;51.980;4.464;2023-05-07T05:24:01;16.50;80.11
71184;DHT22;58887;51.980;4.464;2023-05-07T05:26:43;16.51;80.03
71184;DHT22;58887;51.980;4.464;2023-05-07T05:36:20;16.65;79.74
71184;DHT22;58887;51.980;4.464;2023-05-07T05:38:48;16.73;79.70
71184;DHT22;58887;51.980;4.464;2023-05-07T05:51:21;16.95;79.50
71184;DHT22;58887;51.980;4.464;2023-05-07T05:57:08;16.98;79.01
71184;DHT22;58887;51.980;4.464;2023-05-07T06:06:13;16.88;79.11
71184;DHT22;58887;51.980;4.464;2023-05-07T06:12:01;16.88;79.59
71184;DHT22;58887;51.980;4.464;2023-05-07T06:14:45;16.95;79.11
71184;DHT22;58887;51.980;4.464;2023-05-07T06:20:28;16.78;79.38
71184;DHT22;58887;51.980;4.464;2023-05-07T06:23:02;16.92;78.94
71184;DHT22;58887;51.980;4.464;2023-05-07T06:25:29;17.02;78.97
71184;DHT22;58887;51.980;4.464;2023-05-07T06:27:55;17.06;78.93
71184;DHT22;58887;51.980;4.464;2023-05-07T06:30:24;17.19;78.34
71184;DHT22;58887;51.980;4.464;2023-05-07T06:33:00;17.32;78.45
71184;DHT22;58887;51.980;4.464;2023-05-07T06:35:44;17.43;77.79
71184;DHT22;58887;51.980;4.464;2023-05-07T06:38:25;17.51;77.80
71184;DHT22;58887;51.980;4.464;2023-05-07T06:41:01;17.61;77.92
71184;DHT22;58887;51.980;4.464;2023-05-07T06:43:29;17.57;77.67
71184;DHT22;58887;51.980;4.464;2023-05-07T06:45:56;17.55;77.00
71184;DHT22;58887;51.980;4.464;2023-05-07T06:48:22;17.26;77.97
71184;DHT22;58887;51.980;4.464;2023-05-07T06:50:58;17.47;78.47
71184;DHT22;58887;51.980;4.464;2023-05-07T06:53:24;17.67;77.87
71184;DHT22;58887;51.980;4.464;2023-05-07T06:55:51;17.69;77.24
71184;DHT22;58887;51.980;4.464;2023-05-07T06:58:23;17.70;77.29
71184;DHT22;58887;51.980;4.464;2023-05-07T07:00:49;17.71;76.79
71184;DHT22;58887;51.980;4.464;2023-05-07T07:03:17;17.64;76.65
71184;DHT22;58887;51.980;4.464;2023-05-07T07:05:44;17.71;76.37
71184;DHT22;58887;51.980;4.464;2023-05-07T07:08:11;17.77;76.41
71184;DHT22;58887;51.980;4.464;2023-05-07T07:10:37;18.00;76.57
71184;DHT22;58887;51.980;4.464;2023-05-07T07:13:04;18.30;76.21
71184;DHT22;58887;51.980;4.464;2023-05-07T07:15:29;18.61;75.93
71184;DHT22;58887;51.980;4.464;2023-05-07T07:17:55;18.84;75.53
71184;DHT22;58887;51.980;4.464;2023-05-07T07:20:20;18.97;75.26
71184;DHT22;58887;51.980;4.464;2023-05-07T07:22:46;19.25;74.48
71184;DHT22;58887;51.980;4.464;2023-05-07T07:25:15;19.21;73.24
71184;DHT22;58887;51.980;4.464;2023-05-07T07:27:53;19.22;73.19
71184;DHT22;58887;51.980;4.464;2023-05-07T07:30:21;19.22;73.33
71184;DHT22;58887;51.980;4.464;2023-05-07T07:32:48;19.45;73.45
71184;DHT22;58887;51.980;4.464;2023-05-07T07:35:16;19.56;72.87
71184;DHT22;58887;51.980;4.464;2023-05-07T07:37:51;19.63;72.86
71184;DHT22;58887;51.980;4.464;2023-05-07T07:40:17;19.59;71.92
71184;DHT22;58887;51.980;4.464;2023-05-07T07:42:43;19.48;71.73
71184;DHT22;58887;51.980;4.464;2023-05-07T07:45:10;19.42;72.98
71184;DHT22;58887;51.980;4.464;2023-05-07T07:47:36;19.56;73.42
71184;DHT22;58887;51.980;4.464;2023-05-07T07:50:02;19.76;72.47
71184;DHT22;58887;51.980;4.464;2023-05-07T07:52:28;19.76;71.50
71184;DHT22;58887;51.980;4.464;2023-05-07T07:54:54;19.87;71.84
71184;DHT22;58887;51.980;4.464;2023-05-07T07:57:22;19.80;71.30
71184;DHT22;58887;51.980;4.464;2023-05-07T07:59:47;19.76;71.77
71184;DHT22;58887;51.980;4.464;2023-05-07T08:02:15;19.70;71.81
71184;DHT22;58887;51.980;4.464;2023-05-07T08:04:41;19.73;72.06
71184;DHT22;58887;51.980;4.464;2023-05-07T08:07:10;19.82;71.70
71184;DHT22;58887;51.980;4.464;2023-05-07T08:09:42;19.89;71.70
71184;DHT22;58887;51.980;4.464;2023-05-07T08:12:07;20.05;71.85
71184;DHT22;58887;51.980;4.464;2023-05-07T08:14:34;20.13;71.30
71184;DHT22;58887;51.980;4.464;2023-05-07T08:17:06;20.34;71.23
71184;DHT22;58887;51.980;4.464;2023-05-07T08:19:34;20.33;70.19
71184;DHT22;58887;51.980;4.464;2023-05-07T08:22:00;20.36;70.76
71184;DHT22;58887;51.980;4.464;2023-05-07T08:24:26;20.52;71.22
71184;DHT22;58887;51.980;4.464;2023-05-07T08:26:51;20.41;69.53
71184;DHT22;58887;51.980;4.464;2023-05-07T08:29:17;20.38;69.94
71184;DHT22;58887;51.980;4.464;2023-05-07T08:31:43;20.26;69.38
71184;DHT22;58887;51.980;4.464;2023-05-07T08:34:10;20.23;70.01
71184;DHT22;58887;51.980;4.464;2023-05-07T08:36:36;20.49;70.80
71184;DHT22;58887;51.980;4.464;2023-05-07T08:39:01;20.65;69.92
71184;DHT22;58887;51.980;4.464;2023-05-07T08:41:27;20.85;70.63
71184;DHT22;58887;51.980;4.464;2023-05-07T08:43:58;20.94;68.78
71184;DHT22;58887;51.980;4.464;2023-05-07T08:46:31;21.03;69.16
71184;DHT22;58887;51.980;4.464;2023-05-07T08:48:59;20.88;68.89
71184;DHT22;58887;51.980;4.464;2023-05-07T08:51:25;20.96;70.01
71184;DHT22;58887;51.980;4.464;2023-05-07T08:53:50;21.19;67.64
71184;DHT22;58887;51.980;4.464;2023-05-07T08:56:17;21.42;67.84
71184;DHT22;58887;51.980;4.464;2023-05-07T08:58:44;21.71;67.41
71184;DHT22;58887;51.980;4.464;2023-05-07T09:01:13;21.97;66.66
71184;DHT22;58887;51.980;4.464;2023-05-07T09:03:41;22.35;65.49
71184;DHT22;58887;51.980;4.464;2023-05-07T09:06:06;22.86;65.74
71184;DHT22;58887;51.980;4.464;2023-05-07T09:08:33;23.22;64.06
71184;DHT22;58887;51.980;4.464;2023-05-07T09:11:00;22.69;62.87
71184;DHT22;58887;51.980;4.464;2023-05-07T09:13:27;22.63;63.39
71184;DHT22;58887;51.980;4.464;2023-05-07T09:15:52;22.22;63.17
71184;DHT22;58887;51.980;4.464;2023-05-07T09:18:24;22.16;64.14
71184;DHT22;58887;51.980;4.464;2023-05-07T09:20:52;22.16;64.40
71184;DHT22;58887;51.980;4.464;2023-05-07T09:23:20;22.26;64.61
71184;DHT22;58887;51.980;4.464;2023-05-07T09:25:47;22.25;64.41
71184;DHT22;58887;51.980;4.464;2023-05-07T09:28:14;22.24;64.37
71184;DHT22;58887;51.980;4.464;2023-05-07T09:30:39;22.26;64.08
71184;DHT22;58887;51.980;4.464;2023-05-07T09:33:21;22.39;63.97
71184;DHT22;58887;51.980;4.464;2023-05-07T09:35:51;22.36;63.95
71184;DHT22;58887;51.980;4.464;2023-05-07T09:38:21;22.42;63.88
71184;DHT22;58887;51.980;4.464;2023-05-07T09:40:47;22.33;63.00
71184;DHT22;58887;51.980;4.464;2023-05-07T09:43:13;22.60;61.80
71184;DHT22;58887;51.980;4.464;2023-05-07T09:45:40;23.22;60.94
71184;DHT22;58887;51.980;4.464;2023-05-07T09:48:06;23.41;59.08
71184;DHT22;58887;51.980;4.464;2023-05-07T09:50:36;23.34;59.80
71184;DHT22;58887;51.980;4.464;2023-05-07T09:53:03;23.48;59.76
71184;DHT22;58887;51.980;4.464;2023-05-07T09:55:30;23.18;58.84
71184;DHT22;58887;51.980;4.464;2023-05-07T09:57:57;23.13;59.54
71184;DHT22;58887;51.980;4.464;2023-05-07T10:00:25;23.04;60.71
71184;DHT22;58887;51.980;4.464;2023-05-07T10:02:52;22.73;59.47
71184;DHT22;58887;51.980;4.464;2023-05-07T10:05:19;22.79;60.35
71184;DHT22;58887;51.980;4.464;2023-05-07T10:07:48;23.01;61.02
71184;DHT22;58887;51.980;4.464;2023-05-07T10:10:26;23.73;58.92
71184;DHT22;58887;51.980;4.464;2023-05-07T10:12:53;24.36;57.19
71184;DHT22;58887;51.980;4.464;2023-05-07T10:15:23;24.89;56.95
71184;DHT22;58887;51.980;4.464;2023-05-07T10:17:54;25.42;56.97
71184;DHT22;58887;51.980;4.464;2023-05-07T10:20:21;26.01;55.18
71184;DHT22;58887;51.980;4.464;2023-05-07T10:22:50;26.38;53.01
71184;DHT22;58887;51.980;4.464;2023-05-07T10:25:23;25.73;53.44
71184;DHT22;58887;51.980;4.464;2023-05-07T10:28:01;25.02;55.56
71184;DHT22;58887;51.980;4.464;2023-05-07T10:31:08;24.41;57.35
71184;DHT22;58887;51.980;4.464;2023-05-07T10:33:38;23.95;57.55
71184;DHT22;58887;51.980;4.464;2023-05-07T10:36:05;23.55;58.85
71184;DHT22;58887;51.980;4.464;2023-05-07T10:38:43;23.42;59.39
71184;DHT22;58887;51.980;4.464;2023-05-07T10:41:11;23.41;58.94
71184;DHT22;58887;51.980;4.464;2023-05-07T10:43:40;23.40;57.08
71184;DHT22;58887;51.980;4.464;2023-05-07T10:46:20;23.38;56.50
71184;DHT22;58887;51.980;4.464;2023-05-07T10:49:08;22.89;57.24
71184;DHT22;58887;51.980;4.464;2023-05-07T10:51:39;22.73;57.26
71184;DHT22;58887;51.980;4.464;2023-05-07T10:56:42;22.72;58.05
71184;DHT22;58887;51.980;4.464;2023-05-07T11:01:56;22.86;55.25
71184;DHT22;58887;51.980;4.464;2023-05-07T11:04:45;22.73;56.37
71184;DHT22;58887;51.980;4.464;2023-05-07T11:07:27;22.89;57.65
71184;DHT22;58887;51.980;4.464;2023-05-07T11:09:56;23.11;58.29
71184;DHT22;58887;51.980;4.464;2023-05-07T11:15:07;23.41;55.10
71184;DHT22;58887;51.980;4.464;2023-05-07T11:17:56;23.30;55.88
71184;DHT22;58887;51.980;4.464;2023-05-07T11:20:57;23.35;55.41
71184;DHT22;58887;51.980;4.464;2023-05-07T11:26:10;23.88;56.95
71184;DHT22;58887;51.980;4.464;2023-05-07T11:28:43;24.21;54.82
71184;DHT22;58887;51.980;4.464;2023-05-07T11:31:10;24.48;54.45
71184;DHT22;58887;51.980;4.464;2023-05-07T11:33:40;24.74;57.03
71184;DHT22;58887;51.980;4.464;2023-05-07T11:36:08;24.89;53.76
71184;DHT22;58887;51.980;4.464;2023-05-07T11:38:39;24.78;53.30
71184;DHT22;58887;51.980;4.464;2023-05-07T11:41:07;24.85;52.67
71184;DHT22;58887;51.980;4.464;2023-05-07T11:43:34;24.34;54.41
71184;DHT22;58887;51.980;4.464;2023-05-07T11:46:11;23.96;53.93
71184;DHT22;58887;51.980;4.464;2023-05-07T11:48:41;23.65;54.42
71184;DHT22;58887;51.980;4.464;2023-05-07T11:51:08;23.28;56.09
71184;DHT22;58887;51.980;4.464;2023-05-07T11:53:47;23.07;56.36
71184;DHT22;58887;51.980;4.464;2023-05-07T11:56:16;23.01;59.07
71184;DHT22;58887;51.980;4.464;2023-05-07T11:58:43;22.82;57.15
71184;DHT22;58887;51.980;4.464;2023-05-07T12:01:11;22.72;58.21
71184;DHT22;58887;51.980;4.464;2023-05-07T12:03:46;22.60;59.64
71184;DHT22;58887;51.980;4.464;2023-05-07T12:06:15;22.53;60.26
71184;DHT22;58887;51.980;4.464;2023-05-07T12:08:44;22.59;60.02
71184;DHT22;58887;51.980;4.464;2023-05-07T12:11:16;22.56;59.00
71184;DHT22;58887;51.980;4.464;2023-05-07T12:13:46;22.49;58.06
71184;DHT22;58887;51.980;4.464;2023-05-07T12:16:12;22.41;58.14
71184;DHT22;58887;51.980;4.464;2023-05-07T12:18:39;22.15;60.37
71184;DHT22;58887;51.980;4.464;2023-05-07T12:21:06;22.01;62.54
71184;DHT22;58887;51.980;4.464;2023-05-07T12:23:34;21.94;62.52
71184;DHT22;58887;51.980;4.464;2023-05-07T12:26:00;21.83;61.69
71184;DHT22;58887;51.980;4.464;2023-05-07T12:28:26;21.68;63.30
71184;DHT22;58887;51.980;4.464;2023-05-07T12:30:52;21.65;66.12
71184;DHT22;58887;51.980;4.464;2023-05-07T12:33:28;21.27;66.36
71184;DHT22;58887;51.980;4.464;2023-05-07T12:36:03;21.05;67.96
71184;DHT22;58887;51.980;4.464;2023-05-07T12:38:37;20.86;68.57
71184;DHT22;58887;51.980;4.464;2023-05-07T12:41:05;20.75;68.95
71184;DHT22;58887;51.980;4.464;2023-05-07T12:43:39;20.72;69.13
71184;DHT22;58887;51.980;4.464;2023-05-07T12:46:06;20.69;69.11
71184;DHT22;58887;51.980;4.464;2023-05-07T12:48:38;20.75;69.15
71184;DHT22;58887;51.980;4.464;2023-05-07T12:51:13;21.05;68.86
71184;DHT22;58887;51.980;4.464;2023-05-07T12:53:45;21.33;68.37
71184;DHT22;58887;51.980;4.464;2023-05-07T12:56:18;21.16;67.89
71184;DHT22;58887;51.980;4.464;2023-05-07T12:58:48;21.35;68.30
71184;DHT22;58887;51.980;4.464;2023-05-07T13:01:15;21.29;68.03
71184;DHT22;58887;51.980;4.464;2023-05-07T13:04:01;21.18;68.50
71184;DHT22;58887;51.980;4.464;2023-05-07T13:06:30;21.07;69.29
71184;DHT22;58887;51.980;4.464;2023-05-07T13:08:58;21.05;69.13
71184;DHT22;58887;51.980;4.464;2023-05-07T13:11:24;21.09;69.61
71184;DHT22;58887;51.980;4.464;2023-05-07T13:13:51;20.65;69.91
71184;DHT22;58887;51.980;4.464;2023-05-07T13:16:27;20.52;70.74
71184;DHT22;58887;51.980;4.464;2023-05-07T13:18:55;20.36;70.85
71184;DHT22;58887;51.980;4.464;2023-05-07T13:21:31;20.36;71.00
71184;DHT22;58887;51.980;4.464;2023-05-07T13:24:05;20.36;71.09
71184;DHT22;58887;51.980;4.464;2023-05-07T13:26:34;20.28;71.19
71184;DHT22;58887;51.980;4.464;2023-05-07T13:29:02;20.33;71.16
71184;DHT22;58887;51.980;4.464;2023-05-07T13:31:27;20.34;71.50
71184;DHT22;58887;51.980;4.464;2023-05-07T13:33:55;20.33;71.50
71184;DHT22;58887;51.980;4.464;2023-05-07T13:36:23;20.31;71.58
71184;DHT22;58887;51.980;4.464;2023-05-07T13:38:49;20.17;72.79
71184;DHT22;58887;51.980;4.464;2023-05-07T13:41:16;20.09;72.92
71184;DHT22;58887;51.980;4.464;2023-05-07T13:43:41;20.03;73.07
71184;DHT22;58887;51.980;4.464;2023-05-07T13:46:08;20.13;72.98
71184;DHT22;58887;51.980;4.464;2023-05-07T13:48:35;20.10;72.87
71184;DHT22;58887;51.980;4.464;2023-05-07T13:51:00;20.16;72.36
71184;DHT22;58887;51.980;4.464;2023-05-07T13:56:34;20.54;71.36
71184;DHT22;58887;51.980;4.464;2023-05-07T13:59:04;20.78;71.68
71184;DHT22;58887;51.980;4.464;2023-05-07T14:01:30;20.82;70.64
71184;DHT22;58887;51.980;4.464;2023-05-07T14:03:56;20.94;71.10
71184;DHT22;58887;51.980;4.464;2023-05-07T14:06:24;21.15;70.40
71184;DHT22;58887;51.980;4.464;2023-05-07T14:08:49;21.13;69.22
71184;DHT22;58887;51.980;4.464;2023-05-07T14:11:15;21.26;68.94
71184;DHT22;58887;51.980;4.464;2023-05-07T14:13:40;21.33;69.63
71184;DHT22;58887;51.980;4.464;2023-05-07T14:16:06;21.30;68.53
71184;DHT22;58887;51.980;4.464;2023-05-07T14:18:31;21.19;68.06
71184;DHT22;58887;51.980;4.464;2023-05-07T14:20:58;21.15;68.47
71184;DHT22;58887;51.980;4.464;2023-05-07T14:23:24;20.99;68.74
71184;DHT22;58887;51.980;4.464;2023-05-07T14:25:52;21.09;69.61
71184;DHT22;58887;51.980;4.464;2023-05-07T14:28:18;21.10;69.38
71184;DHT22;58887;51.980;4.464;2023-05-07T14:30:44;21.02;69.02
71184;DHT22;58887;51.980;4.464;2023-05-07T14:33:10;20.84;69.65
71184;DHT22;58887;51.980;4.464;2023-05-07T14:35:40;20.74;70.43
71184;DHT22;58887;51.980;4.464;2023-05-07T14:38:19;20.59;70.82
71184;DHT22;58887;51.980;4.464;2023-05-07T14:40:45;20.47;70.53
71184;DHT22;58887;51.980;4.464;2023-05-07T14:43:11;20.41;71.13
71184;DHT22;58887;51.980;4.464;2023-05-07T14:45:38;20.36;71.94
71184;DHT22;58887;51.980;4.464;2023-05-07T14:48:09;20.31;72.50
71184;DHT22;58887;51.980;4.464;2023-05-07T14:50:52;20.07;74.45
71184;DHT22;58887;51.980;4.464;2023-05-07T14:53:17;19.94;75.21
71184;DHT22;58887;51.980;4.464;2023-05-07T14:55:43;19.76;75.93
71184;DHT22;58887;51.980;4.464;2023-05-07T14:58:15;19.69;76.51
71184;DHT22;58887;51.980;4.464;2023-05-07T15:00:42;19.48;77.38
71184;DHT22;58887;51.980;4.464;2023-05-07T15:03:09;19.48;77.09
71184;DHT22;58887;51.980;4.464;2023-05-07T15:05:37;19.39;77.64
71184;DHT22;58887;51.980;4.464;2023-05-07T15:08:04;19.34;78.00
71184;DHT22;58887;51.980;4.464;2023-05-07T15:10:36;19.28;77.93
71184;DHT22;58887;51.980;4.464;2023-05-07T15:13:09;19.15;78.79
71184;DHT22;58887;51.980;4.464;2023-05-07T15:15:35;19.06;78.86
71184;DHT22;58887;51.980;4.464;2023-05-07T15:18:01;18.98;79.78
71184;DHT22;58887;51.980;4.464;2023-05-07T15:20:27;18.93;80.38
71184;DHT22;58887;51.980;4.464;2023-05-07T15:22:52;18.77;80.83
71184;DHT22;58887;51.980;4.464;2023-05-07T15:25:18;18.69;80.60
71184;DHT22;58887;51.980;4.464;2023-05-07T15:27:43;18.63;81.20
71184;DHT22;58887;51.980;4.464;2023-05-07T15:30:09;18.59;80.72
71184;DHT22;58887;51.980;4.464;2023-05-07T15:32:37;18.52;81.39
71184;DHT22;58887;51.980;4.464;2023-05-07T15:35:04;18.53;81.04
71184;DHT22;58887;51.980;4.464;2023-05-07T15:37:31;18.50;80.99
71184;DHT22;58887;51.980;4.464;2023-05-07T15:39:57;18.52;81.96
71184;DHT22;58887;51.980;4.464;2023-05-07T15:42:23;18.43;81.02
71184;DHT22;58887;51.980;4.464;2023-05-07T15:44:48;18.43;81.27
71184;DHT22;58887;51.980;4.464;2023-05-07T15:47:14;18.39;81.97
71184;DHT22;58887;51.980;4.464;2023-05-07T15:49:41;18.43;80.65
71184;DHT22;58887;51.980;4.464;2023-05-07T15:52:07;18.42;81.72
71184;DHT22;58887;51.980;4.464;2023-05-07T15:54:35;18.49;80.73
71184;DHT22;58887;51.980;4.464;2023-05-07T15:57:00;18.46;80.88
71184;DHT22;58887;51.980;4.464;2023-05-07T15:59:26;18.39;81.11
71184;DHT22;58887;51.980;4.464;2023-05-07T16:01:52;18.38;81.02
71184;DHT22;58887;51.980;4.464;2023-05-07T16:04:17;18.32;81.47
71184;DHT22;58887;51.980;4.464;2023-05-07T16:06:43;18.29;81.68
71184;DHT22;58887;51.980;4.464;2023-05-07T16:09:12;18.28;81.56
71184;DHT22;58887;51.980;4.464;2023-05-07T16:11:37;18.25;81.56
71184;DHT22;58887;51.980;4.464;2023-05-07T16:14:03;18.26;81.75
71184;DHT22;58887;51.980;4.464;2023-05-07T16:16:32;18.33;81.48
71184;DHT22;58887;51.980;4.464;2023-05-07T16:18:57;18.38;81.45
71184;DHT22;58887;51.980;4.464;2023-05-07T16:21:23;18.39;80.68
71184;DHT22;58887;51.980;4.464;2023-05-07T16:23:49;18.30;80.32
71184;DHT22;58887;51.980;4.464;2023-05-07T16:26:15;18.28;81.02
71184;DHT22;58887;51.980;4.464;2023-05-07T16:28:41;18.24;81.52
71184;DHT22;58887;51.980;4.464;2023-05-07T16:31:07;18.29;82.11
71184;DHT22;58887;51.980;4.464;2023-05-07T16:33:34;18.32;81.48
71184;DHT22;58887;51.980;4.464;2023-05-07T16:36:00;18.32;81.63
71184;DHT22;58887;51.980;4.464;2023-05-07T16:38:26;18.30;81.52
71184;DHT22;58887;51.980;4.464;2023-05-07T16:40:53;18.30;81.66
71184;DHT22;58887;51.980;4.464;2023-05-07T16:43:18;18.33;81.89
71184;DHT22;58887;51.980;4.464;2023-05-07T16:45:45;18.39;82.13
71184;DHT22;58887;51.980;4.464;2023-05-07T16:48:11;18.42;82.56
71184;DHT22;58887;51.980;4.464;2023-05-07T16:50:37;18.46;82.47
71184;DHT22;58887;51.980;4.464;2023-05-07T16:53:04;18.45;82.11
71184;DHT22;58887;51.980;4.464;2023-05-07T16:55:30;18.50;82.04
71184;DHT22;58887;51.980;4.464;2023-05-07T16:57:59;18.60;82.16
71184;DHT22;58887;51.980;4.464;2023-05-07T17:00:25;18.64;81.66
71184;DHT22;58887;51.980;4.464;2023-05-07T17:02:51;18.60;81.08
71184;DHT22;58887;51.980;4.464;2023-05-07T17:05:17;18.69;81.67
71184;DHT22;58887;51.980;4.464;2023-05-07T17:07:44;18.83;81.37
71184;DHT22;58887;51.980;4.464;2023-05-07T17:10:09;18.93;81.44
71184;DHT22;58887;51.980;4.464;2023-05-07T17:12:35;18.91;80.59
71184;DHT22;58887;51.980;4.464;2023-05-07T17:15:01;18.97;80.43
71184;DHT22;58887;51.980;4.464;2023-05-07T17:17:27;18.89;80.04
71184;DHT22;58887;51.980;4.464;2023-05-07T17:19:53;18.89;80.63
71184;DHT22;58887;51.980;4.464;2023-05-07T17:22:18;18.84;80.17
71184;DHT22;58887;51.980;4.464;2023-05-07T17:24:44;18.74;80.04
71184;DHT22;58887;51.980;4.464;2023-05-07T17:27:09;18.64;79.84
71184;DHT22;58887;51.980;4.464;2023-05-07T17:29:35;18.60;79.52
71184;DHT22;58887;51.980;4.464;2023-05-07T17:32:00;18.53;79.97
71184;DHT22;58887;51.980;4.464;2023-05-07T17:34:26;18.57;80.22
71184;DHT22;58887;51.980;4.464;2023-05-07T17:36:51;18.55;80.37
71184;DHT22;58887;51.980;4.464;2023-05-07T17:39:17;18.53;80.30
71184;DHT22;58887;51.980;4.464;2023-05-07T17:41:42;18.56;80.57
71184;DHT22;58887;51.980;4.464;2023-05-07T17:44:08;18.52;79.73
71184;DHT22;58887;51.980;4.464;2023-05-07T17:46:33;18.50;79.96
71184;DHT22;58887;51.980;4.464;2023-05-07T17:48:59;18.52;80.45
71184;DHT22;58887;51.980;4.464;2023-05-07T17:51:25;18.46;80.47
71184;DHT22;58887;51.980;4.464;2023-05-07T17:53:51;18.52;80.80
71184;DHT22;58887;51.980;4.464;2023-05-07T17:56:16;18.52;80.77
71184;DHT22;58887;51.980;4.464;2023-05-07T17:58:42;18.49;80.29
71184;DHT22;58887;51.980;4.464;2023-05-07T18:01:07;18.53;79.96
71184;DHT22;58887;51.980;4.464;2023-05-07T18:03:33;18.50;79.43